sensor_id;sensor_type;location;lat;lon;timestamp;temperature;humidity
61896;DHT22;47835;52.778;5.956;2023-08-24T04:58:13;20.60;93.60
61896;DHT22;47835;52.778;5.956;2023-08-24T05:00:39;18.80;99.90
61896;DHT22;47835;52.778;5.956;2023-08-24T05:03:05;17.80;99.90
61896;DHT22;47835;52.778;5.956;2023-08-24T05:05:32;17.00;99.90
61896;DHT22;47835;52.778;5.956;2023-08-24T05:07:59;16.30;99.90
61896;DHT22;47835;52.778;5.956;2023-08-24T05:10:25;15.80;99.90
61896;DHT22;47835;52.778;5.956;2023-08-24T05:12:50;15.40;99.90
61896;DHT22;47835;52.778;5.956;2023-08-24T05:15:16;15.10;99.90
61896;DHT22;47835;52.778;5.956;2023-08-24T05:17:42;15.00;99.90
61896;DHT22;47835;52.778;5.956;2023-08-24T05:20:08;14.90;99.90
61896;DHT22;47835;52.778;5.956;2023-08-24T05:22:36;14.90;99.90
61896;DHT22;47835;52.778;5.956;2023-08-24T05:25:02;14.90;99.90
61896;DHT22;47835;52.778;5.956;2023-08-24T05:27:28;14.90;99.90
61896;DHT22;47835;52.778;5.956;2023-08-24T05:29:53;14.90;99.90
61896;DHT22;47835;52.778;5.956;2023-08-24T05:32:19;15.00;99.90
61896;DHT22;47835;52.778;5.956;2023-08-24T05:34:45;15.20;99.90
61896;DHT22;47835;52.778;5.956;2023-08-24T05:37:11;15.30;99.90
61896;DHT22;47835;52.778;5.956;2023-08-24T05:39:37;15.60;99.90
61896;DHT22;47835;52.778;5.956;2023-08-24T05:42:04;15.70;99.90
61896;DHT22;47835;52.778;5.956;2023-08-24T05:44:29;15.80;99.90
61896;DHT22;47835;52.778;5.956;2023-08-24T05:46:55;15.90;99.90
61896;DHT22;47835;52.778;5.956;2023-08-24T05:49:20;15.90;99.90
61896;DHT22;47835;52.778;5.956;2023-08-24T05:51:46;15.90;99.90
61896;DHT22;47835;52.778;5.956;2023-08-24T05:54:12;15.90;99.90
61896;DHT22;47835;52.778;5.956;2023-08-24T05:56:39;15.80;99.90
61896;DHT22;47835;52.778;5.956;2023-08-24T05:59:04;15.80;99.90
61896;DHT22;47835;52.778;5.956;2023-08-24T06:01:30;15.70;99.90
61896;DHT22;47835;52.778;5.956;2023-08-24T06:03:55;15.70;99.90
61896;DHT22;47835;52.778;5.956;2023-08-24T06:06:21;15.70;99.90
61896;DHT22;47835;52.778;5.956;2023-08-24T06:08:47;15.70;99.90
61896;DHT22;47835;52.778;5.956;2023-08-24T06:11:12;15.70;99.90
61896;DHT22;47835;52.778;5.956;2023-08-24T06:13:38;15.60;99.90
61896;DHT22;47835;52.778;5.956;2023-08-24T06:16:03;15.60;99.90
61896;DHT22;47835;52.778;5.956;2023-08-24T06:18:29;15.60;99.90
61896;DHT22;47835;52.778;5.956;2023-08-24T06:20:55;15.80;99.90
61896;DHT22;47835;52.778;5.956;2023-08-24T06:23:20;15.90;99.90
61896;DHT22;47835;52.778;5.956;2023-08-24T06:25:47;16.10;99.90
61896;DHT22;47835;52.778;5.956;2023-08-24T06:28:13;16.40;99.90
61896;DHT22;47835;52.778;5.956;2023-08-24T06:30:39;16.60;99.90
61896;DHT22;47835;52.778;5.956;2023-08-24T06:33:06;16.70;99.90
61896;DHT22;47835;52.778;5.956;2023-08-24T06:35:35;17.00;99.90
61896;DHT22;47835;52.778;5.956;2023-08-24T06:38:01;17.10;99.90
61896;DHT22;47835;52.778;5.956;2023-08-24T06:40:27;17.20;99.90
61896;DHT22;47835;52.778;5.956;2023-08-24T06:42:52;17.40;99.90
61896;DHT22;47835;52.778;5.956;2023-08-24T06:45:18;17.50;99.90
61896;DHT22;47835;52.778;5.956;2023-08-24T06:47:44;17.60;99.90
61896;DHT22;47835;52.778;5.956;2023-08-24T06:50:10;17.70;99.90
61896;DHT22;47835;52.778;5.956;2023-08-24T06:52:36;17.90;99.90
61896;DHT22;47835;52.778;5.956;2023-08-24T06:55:02;18.00;99.90
61896;DHT22;47835;52.778;5.956;2023-08-24T06:57:29;18.10;99.90
61896;DHT22;47835;52.778;5.956;2023-08-24T06:59:54;18.30;99.90
61896;DHT22;47835;52.778;5.956;2023-08-24T07:02:20;18.40;99.90
61896;DHT22;47835;52.778;5.956;2023-08-24T07:04:46;18.50;99.90
61896;DHT22;47835;52.778;5.956;2023-08-24T07:07:12;18.60;99.90
61896;DHT22;47835;52.778;5.956;2023-08-24T07:09:37;18.70;99.90
61896;DHT22;47835;52.778;5.956;2023-08-24T07:12:03;18.80;99.90
61896;DHT22;47835;52.778;5.956;2023-08-24T07:14:32;18.90;99.90
61896;DHT22;47835;52.778;5.956;2023-08-24T07:16:57;19.00;99.90
61896;DHT22;47835;52.778;5.956;2023-08-24T07:19:24;19.10;99.90
61896;DHT22;47835;52.778;5.956;2023-08-24T07:21:52;19.30;99.90
61896;DHT22;47835;52.778;5.956;2023-08-24T07:24:18;19.30;99.90
61896;DHT22;47835;52.778;5.956;2023-08-24T07:26:54;19.30;99.90
61896;DHT22;47835;52.778;5.956;2023-08-24T07:29:20;19.30;99.90
61896;DHT22;47835;52.778;5.956;2023-08-24T07:31:52;19.40;99.90
61896;DHT22;47835;52.778;5.956;2023-08-24T07:34:21;19.50;99.90
61896;DHT22;47835;52.778;5.956;2023-08-24T07:36:48;19.50;99.90
61896;DHT22;47835;52.778;5.956;2023-08-24T07:39:14;19.60;99.90
61896;DHT22;47835;52.778;5.956;2023-08-24T07:41:41;19.60;99.90
61896;DHT22;47835;52.778;5.956;2023-08-24T07:44:07;19.80;99.90
61896;DHT22;47835;52.778;5.956;2023-08-24T07:46:33;19.80;99.90
61896;DHT22;47835;52.778;5.956;2023-08-24T07:48:59;19.90;99.90
61896;DHT22;47835;52.778;5.956;2023-08-24T07:51:25;19.90;99.90
61896;DHT22;47835;52.778;5.956;2023-08-24T07:53:50;20.00;99.90
61896;DHT22;47835;52.778;5.956;2023-08-24T07:56:18;20.20;99.90
61896;DHT22;47835;52.778;5.956;2023-08-24T07:58:44;20.30;99.90
61896;DHT22;47835;52.778;5.956;2023-08-24T08:01:11;20.40;99.90
61896;DHT22;47835;52.778;5.956;2023-08-24T08:03:37;20.50;99.90
61896;DHT22;47835;52.778;5.956;2023-08-24T08:06:02;20.60;99.90
61896;DHT22;47835;52.778;5.956;2023-08-24T08:08:32;20.70;99.90
61896;DHT22;47835;52.778;5.956;2023-08-24T08:11:01;20.90;99.90
61896;DHT22;47835;52.778;5.956;2023-08-24T08:13:28;21.10;99.90
61896;DHT22;47835;52.778;5.956;2023-08-24T08:16:01;21.10;99.90
61896;DHT22;47835;52.778;5.956;2023-08-24T08:18:28;21.30;99.90
61896;DHT22;47835;52.778;5.956;2023-08-24T08:20:57;21.40;99.90
61896;DHT22;47835;52.778;5.956;2023-08-24T08:23:22;21.70;99.90
61896;DHT22;47835;52.778;5.956;2023-08-24T08:25:48;21.80;99.90
61896;DHT22;47835;52.778;5.956;2023-08-24T08:28:14;21.90;99.90
61896;DHT22;47835;52.778;5.956;2023-08-24T08:30:40;22.10;99.90
61896;DHT22;47835;52.778;5.956;2023-08-24T08:33:05;22.20;99.90
61896;DHT22;47835;52.778;5.956;2023-08-24T08:35:31;22.40;99.90
61896;DHT22;47835;52.778;5.956;2023-08-24T08:37:57;22.40;99.90
61896;DHT22;47835;52.778;5.956;2023-08-24T08:40:26;22.50;99.90
61896;DHT22;47835;52.778;5.956;2023-08-24T08:42:56;22.60;99.90
61896;DHT22;47835;52.778;5.956;2023-08-24T08:45:25;22.60;99.90
61896;DHT22;47835;52.778;5.956;2023-08-24T08:47:52;22.60;99.90
61896;DHT22;47835;52.778;5.956;2023-08-24T08:50:20;22.60;99.90
61896;DHT22;47835;52.778;5.956;2023-08-24T08:52:46;22.70;99.90
61896;DHT22;47835;52.778;5.956;2023-08-24T08:55:14;22.70;99.90
61896;DHT22;47835;52.778;5.956;2023-08-24T08:57:41;22.70;99.90
61896;DHT22;47835;52.778;5.956;2023-08-24T09:00:10;22.70;99.90
61896;DHT22;47835;52.778;5.956;2023-08-24T09:02:43;22.70;99.90
61896;DHT22;47835;52.778;5.956;2023-08-24T09:05:12;22.70;99.90
61896;DHT22;47835;52.778;5.956;2023-08-24T09:07:44;22.80;99.90
61896;DHT22;47835;52.778;5.956;2023-08-24T09:10:10;22.80;99.90
61896;DHT22;47835;52.778;5.956;2023-08-24T09:12:39;22.80;99.90
61896;DHT22;47835;52.778;5.956;2023-08-24T09:15:05;22.80;99.90
61896;DHT22;47835;52.778;5.956;2023-08-24T09:17:34;22.80;99.90
61896;DHT22;47835;52.778;5.956;2023-08-24T09:20:06;22.80;99.90
61896;DHT22;47835;52.778;5.956;2023-08-24T09:22:38;22.80;99.90
61896;DHT22;47835;52.778;5.956;2023-08-24T09:25:05;22.70;99.90
61896;DHT22;47835;52.778;5.956;2023-08-24T09:27:32;22.60;99.90
61896;DHT22;47835;52.778;5.956;2023-08-24T09:29:58;22.60;99.90
61896;DHT22;47835;52.778;5.956;2023-08-24T09:32:27;22.50;99.90
61896;DHT22;47835;52.778;5.956;2023-08-24T09:34:56;22.40;99.90
61896;DHT22;47835;52.778;5.956;2023-08-24T09:37:32;22.30;99.90
61896;DHT22;47835;52.778;5.956;2023-08-24T09:40:05;22.30;99.90
61896;DHT22;47835;52.778;5.956;2023-08-24T09:42:39;22.30;99.90
61896;DHT22;47835;52.778;5.956;2023-08-24T09:45:12;22.20;99.90
61896;DHT22;47835;52.778;5.956;2023-08-24T09:47:38;22.20;99.90
61896;DHT22;47835;52.778;5.956;2023-08-24T09:50:05;22.10;99.90
61896;DHT22;47835;52.778;5.956;2023-08-24T09:52:37;22.10;99.90
61896;DHT22;47835;52.778;5.956;2023-08-24T09:55:05;22.00;99.90
61896;DHT22;47835;52.778;5.956;2023-08-24T09:57:40;22.00;99.90
61896;DHT22;47835;52.778;5.956;2023-08-24T10:00:08;22.00;99.90
61896;DHT22;47835;52.778;5.956;2023-08-24T10:02:48;21.90;99.90
61896;DHT22;47835;52.778;5.956;2023-08-24T10:05:21;21.90;99.90
61896;DHT22;47835;52.778;5.956;2023-08-24T10:07:53;21.80;99.90
61896;DHT22;47835;52.778;5.956;2023-08-24T10:10:25;21.80;99.90
61896;DHT22;47835;52.778;5.956;2023-08-24T10:12:53;21.70;99.90
61896;DHT22;47835;52.778;5.956;2023-08-24T10:15:22;21.70;99.90
61896;DHT22;47835;52.778;5.956;2023-08-24T10:17:51;21.60;99.90
61896;DHT22;47835;52.778;5.956;2023-08-24T10:20:20;21.70;99.90
61896;DHT22;47835;52.778;5.956;2023-08-24T10:22:50;21.60;99.90
61896;DHT22;47835;52.778;5.956;2023-08-24T10:25:16;21.60;99.90
61896;DHT22;47835;52.778;5.956;2023-08-24T10:27:45;21.50;99.90
61896;DHT22;47835;52.778;5.956;2023-08-24T10:30:13;21.50;99.90
61896;DHT22;47835;52.778;5.956;2023-08-24T10:32:48;21.50;99.90
61896;DHT22;47835;52.778;5.956;2023-08-24T10:35:22;21.50;99.90
61896;DHT22;47835;52.778;5.956;2023-08-24T10:37:53;21.50;99.90
61896;DHT22;47835;52.778;5.956;2023-08-24T10:40:36;21.50;99.90
61896;DHT22;47835;52.778;5.956;2023-08-24T10:43:04;21.50;99.90
61896;DHT22;47835;52.778;5.956;2023-08-24T10:45:58;21.50;99.90
61896;DHT22;47835;52.778;5.956;2023-08-24T10:51:31;21.50;99.90
61896;DHT22;47835;52.778;5.956;2023-08-24T10:54:08;21.50;99.90
61896;DHT22;47835;52.778;5.956;2023-08-24T10:56:40;21.50;99.90
61896;DHT22;47835;52.778;5.956;2023-08-24T10:59:33;21.50;99.90
61896;DHT22;47835;52.778;5.956;2023-08-24T11:15:50;21.60;99.90
61896;DHT22;47835;52.778;5.956;2023-08-24T11:18:28;21.70;99.90
61896;DHT22;47835;52.778;5.956;2023-08-24T11:23:22;21.80;99.90
61896;DHT22;47835;52.778;5.956;2023-08-24T11:25:50;21.80;99.90
61896;DHT22;47835;52.778;5.956;2023-08-24T11:28:24;21.90;99.90
61896;DHT22;47835;52.778;5.956;2023-08-24T11:30:51;21.90;99.90
61896;DHT22;47835;52.778;5.956;2023-08-24T11:33:30;22.00;99.90
61896;DHT22;47835;52.778;5.956;2023-08-24T11:36:03;22.00;99.90
61896;DHT22;47835;52.778;5.956;2023-08-24T11:38:57;22.00;99.90
61896;DHT22;47835;52.778;5.956;2023-08-24T11:41:26;22.10;99.90
61896;DHT22;47835;52.778;5.956;2023-08-24T11:44:05;22.10;99.90
61896;DHT22;47835;52.778;5.956;2023-08-24T11:46:34;22.20;99.90
61896;DHT22;47835;52.778;5.956;2023-08-24T11:49:08;22.20;99.90
61896;DHT22;47835;52.778;5.956;2023-08-24T11:51:36;22.30;99.90
61896;DHT22;47835;52.778;5.956;2023-08-24T11:54:02;22.30;99.90
61896;DHT22;47835;52.778;5.956;2023-08-24T11:56:28;22.30;99.90
61896;DHT22;47835;52.778;5.956;2023-08-24T11:58:53;22.40;99.90
61896;DHT22;47835;52.778;5.956;2023-08-24T12:01:19;22.30;99.90
61896;DHT22;47835;52.778;5.956;2023-08-24T12:03:45;22.30;99.90
61896;DHT22;47835;52.778;5.956;2023-08-24T12:08:39;22.40;99.90
61896;DHT22;47835;52.778;5.956;2023-08-24T12:11:13;22.40;99.90
61896;DHT22;47835;52.778;5.956;2023-08-24T12:13:50;22.40;99.90
61896;DHT22;47835;52.778;5.956;2023-08-24T12:16:17;22.40;99.90
61896;DHT22;47835;52.778;5.956;2023-08-24T12:19:01;22.40;99.90
61896;DHT22;47835;52.778;5.956;2023-08-24T12:21:29;22.40;99.90
61896;DHT22;47835;52.778;5.956;2023-08-24T12:24:02;22.40;99.90
61896;DHT22;47835;52.778;5.956;2023-08-24T12:26:35;22.40;99.90
61896;DHT22;47835;52.778;5.956;2023-08-24T12:29:05;22.40;99.90
61896;DHT22;47835;52.778;5.956;2023-08-24T12:31:32;22.30;99.90
61896;DHT22;47835;52.778;5.956;2023-08-24T12:34:08;22.30;99.90
61896;DHT22;47835;52.778;5.956;2023-08-24T12:36:38;22.30;99.90
61896;DHT22;47835;52.778;5.956;2023-08-24T12:39:05;22.30;99.90
61896;DHT22;47835;52.778;5.956;2023-08-24T12:41:33;22.30;99.90
61896;DHT22;47835;52.778;5.956;2023-08-24T12:43:58;22.30;99.90
61896;DHT22;47835;52.778;5.956;2023-08-24T12:46:24;22.30;99.90
61896;DHT22;47835;52.778;5.956;2023-08-24T12:48:51;22.30;99.90
61896;DHT22;47835;52.778;5.956;2023-08-24T12:51:16;22.30;99.90
61896;DHT22;47835;52.778;5.956;2023-08-24T12:53:42;22.30;99.90
61896;DHT22;47835;52.778;5.956;2023-08-24T12:56:08;22.30;99.90
61896;DHT22;47835;52.778;5.956;2023-08-24T12:58:37;22.30;99.90
61896;DHT22;47835;52.778;5.956;2023-08-24T13:01:28;22.30;99.90
61896;DHT22;47835;52.778;5.956;2023-08-24T13:03:53;22.40;99.90
61896;DHT22;47835;52.778;5.956;2023-08-24T13:06:19;22.60;99.90
61896;DHT22;47835;52.778;5.956;2023-08-24T13:08:47;22.70;99.90
61896;DHT22;47835;52.778;5.956;2023-08-24T13:11:15;22.70;99.90
61896;DHT22;47835;52.778;5.956;2023-08-24T13:13:40;22.80;99.90
61896;DHT22;47835;52.778;5.956;2023-08-24T13:16:07;22.80;99.90
61896;DHT22;47835;52.778;5.956;2023-08-24T13:18:33;22.80;99.90
61896;DHT22;47835;52.778;5.956;2023-08-24T13:21:10;22.80;99.90
61896;DHT22;47835;52.778;5.956;2023-08-24T13:23:35;22.80;99.90
61896;DHT22;47835;52.778;5.956;2023-08-24T13:26:04;22.90;99.90
61896;DHT22;47835;52.778;5.956;2023-08-24T13:28:29;22.90;99.90
61896;DHT22;47835;52.778;5.956;2023-08-24T13:30:55;22.90;99.90
61896;DHT22;47835;52.778;5.956;2023-08-24T13:33:24;22.80;99.90
61896;DHT22;47835;52.778;5.956;2023-08-24T13:35:49;22.80;99.90
61896;DHT22;47835;52.778;5.956;2023-08-24T13:38:15;22.70;99.90
61896;DHT22;47835;52.778;5.956;2023-08-24T13:40:41;22.70;99.90
61896;DHT22;47835;52.778;5.956;2023-08-24T13:43:06;22.60;99.90
61896;DHT22;47835;52.778;5.956;2023-08-24T13:45:32;22.60;99.90
61896;DHT22;47835;52.778;5.956;2023-08-24T13:47:59;22.60;99.90
61896;DHT22;47835;52.778;5.956;2023-08-24T13:50:52;22.60;99.90
61896;DHT22;47835;52.778;5.956;2023-08-24T13:53:18;22.50;99.90
61896;DHT22;47835;52.778;5.956;2023-08-24T13:55:46;22.50;99.90
61896;DHT22;47835;52.778;5.956;2023-08-24T13:58:14;22.50;99.90
61896;DHT22;47835;52.778;5.956;2023-08-24T14:00:40;22.50;99.90
61896;DHT22;47835;52.778;5.956;2023-08-24T14:03:06;22.40;99.90
61896;DHT22;47835;52.778;5.956;2023-08-24T14:05:38;22.40;99.90
61896;DHT22;47835;52.778;5.956;2023-08-24T14:08:06;22.30;99.90
61896;DHT22;47835;52.778;5.956;2023-08-24T14:10:34;22.30;99.90
61896;DHT22;47835;52.778;5.956;2023-08-24T14:13:00;22.20;99.90
61896;DHT22;47835;52.778;5.956;2023-08-24T14:15:25;22.20;99.90
61896;DHT22;47835;52.778;5.956;2023-08-24T14:17:51;22.20;99.90
61896;DHT22;47835;52.778;5.956;2023-08-24T14:20:16;22.20;99.90
61896;DHT22;47835;52.778;5.956;2023-08-24T14:22:42;22.10;99.90
61896;DHT22;47835;52.778;5.956;2023-08-24T14:25:08;22.10;99.90
61896;DHT22;47835;52.778;5.956;2023-08-24T14:27:33;22.10;99.90
61896;DHT22;47835;52.778;5.956;2023-08-24T14:29:59;22.00;99.90
61896;DHT22;47835;52.778;5.956;2023-08-24T14:32:24;22.00;99.90
61896;DHT22;47835;52.778;5.956;2023-08-24T14:34:50;22.00;99.90
61896;DHT22;47835;52.778;5.956;2023-08-24T14:37:15;22.00;99.90
61896;DHT22;47835;52.778;5.956;2023-08-24T14:39:41;22.00;99.90
61896;DHT22;47835;52.778;5.956;2023-08-24T14:42:07;22.00;99.90
61896;DHT22;47835;52.778;5.956;2023-08-24T14:44:33;22.00;99.90
61896;DHT22;47835;52.778;5.956;2023-08-24T14:46:59;22.00;99.90
61896;DHT22;47835;52.778;5.956;2023-08-24T14:49:24;22.10;99.90
61896;DHT22;47835;52.778;5.956;2023-08-24T14:51:50;22.10;99.90
61896;DHT22;47835;52.778;5.956;2023-08-24T14:54:15;22.00;99.90
61896;DHT22;47835;52.778;5.956;2023-08-24T14:56:41;22.00;99.90
61896;DHT22;47835;52.778;5.956;2023-08-24T14:59:07;22.00;99.90
61896;DHT22;47835;52.778;5.956;2023-08-24T15:01:33;22.00;99.90
61896;DHT22;47835;52.778;5.956;2023-08-24T15:03:58;22.00;99.90
61896;DHT22;47835;52.778;5.956;2023-08-24T15:06:24;22.00;99.90
61896;DHT22;47835;52.778;5.956;2023-08-24T15:08:49;22.00;99.90
61896;DHT22;47835;52.778;5.956;2023-08-24T15:11:15;22.00;99.90
61896;DHT22;47835;52.778;5.956;2023-08-24T15:13:43;22.00;99.90
61896;DHT22;47835;52.778;5.956;2023-08-24T15:16:08;22.00;99.90
61896;DHT22;47835;52.778;5.956;2023-08-24T15:18:35;21.90;99.90
61896;DHT22;47835;52.778;5.956;2023-08-24T15:21:01;21.90;99.90
61896;DHT22;47835;52.778;5.956;2023-08-24T15:23:29;22.00;99.90
61896;DHT22;47835;52.778;5.956;2023-08-24T15:25:56;22.00;99.90
61896;DHT22;47835;52.778;5.956;2023-08-24T15:28:22;22.00;99.90
61896;DHT22;47835;52.778;5.956;2023-08-24T15:30:48;22.00;99.90
61896;DHT22;47835;52.778;5.956;2023-08-24T15:33:15;22.00;99.90
61896;DHT22;47835;52.778;5.956;2023-08-24T15:35:47;22.00;99.90
61896;DHT22;47835;52.778;5.956;2023-08-24T15:38:12;22.00;99.90
61896;DHT22;47835;52.778;5.956;2023-08-24T15:40:38;22.00;99.90
61896;DHT22;47835;52.778;5.956;2023-08-24T15:43:05;22.10;99.90
61896;DHT22;47835;52.778;5.956;2023-08-24T15:45:32;22.10;99.90
61896;DHT22;47835;52.778;5.956;2023-08-24T15:47:58;22.10;99.90
61896;DHT22;47835;52.778;5.956;2023-08-24T15:50:25;22.10;99.90
61896;DHT22;47835;52.778;5.956;2023-08-24T15:52:51;22.20;99.90
61896;DHT22;47835;52.778;5.956;2023-08-24T15:55:31;22.20;99.90
61896;DHT22;47835;52.778;5.956;2023-08-24T15:57:59;22.30;99.90
61896;DHT22;47835;52.778;5.956;2023-08-24T16:00:25;22.30;99.90
61896;DHT22;47835;52.778;5.956;2023-08-24T16:02:51;22.30;99.90
61896;DHT22;47835;52.778;5.956;2023-08-24T16:05:17;22.30;99.90
61896;DHT22;47835;52.778;5.956;2023-08-24T16:07:42;22.30;99.90
61896;DHT22;47835;52.778;5.956;2023-08-24T16:10:08;22.30;99.90
61896;DHT22;47835;52.778;5.956;2023-08-24T16:12:34;22.30;99.90
61896;DHT22;47835;52.778;5.956;2023-08-24T16:14:59;22.30;99.90
61896;DHT22;47835;52.778;5.956;2023-08-24T16:17:25;22.30;99.90
61896;DHT22;47835;52.778;5.956;2023-08-24T16:19:50;22.30;99.90
61896;DHT22;47835;52.778;5.956;2023-08-24T16:22:16;22.40;99.90
61896;DHT22;47835;52.778;5.956;2023-08-24T16:24:41;22.30;99.90
61896;DHT22;47835;52.778;5.956;2023-08-24T16:27:07;22.30;99.90
61896;DHT22;47835;52.778;5.956;2023-08-24T16:29:32;22.30;99.90
61896;DHT22;47835;52.778;5.956;2023-08-24T16:31:58;22.30;99.90
61896;DHT22;47835;52.778;5.956;2023-08-24T16:34:24;22.30;99.90
61896;DHT22;47835;52.778;5.956;2023-08-24T16:36:49;22.20;99.90
61896;DHT22;47835;52.778;5.956;2023-08-24T16:39:15;22.20;99.90
61896;DHT22;47835;52.778;5.956;2023-08-24T16:41:40;22.20;99.90
61896;DHT22;47835;52.778;5.956;2023-08-24T16:44:06;22.20;99.90
61896;DHT22;47835;52.778;5.956;2023-08-24T16:46:31;22.20;99.90
61896;DHT22;47835;52.778;5.956;2023-08-24T16:48:57;22.20;99.90
61896;DHT22;47835;52.778;5.956;2023-08-24T16:51:23;22.20;99.90
61896;DHT22;47835;52.778;5.956;2023-08-24T16:53:48;22.20;99.90
61896;DHT22;47835;52.778;5.956;2023-08-24T16:56:14;22.20;99.90
61896;DHT22;47835;52.778;5.956;2023-08-24T16:58:40;22.20;99.90
61896;DHT22;47835;52.778;5.956;2023-08-24T17:01:10;22.20;99.90
61896;DHT22;47835;52.778;5.956;2023-08-24T17:03:36;22.10;99.90
61896;DHT22;47835;52.778;5.956;2023-08-24T17:06:01;22.10;99.90
61896;DHT22;47835;52.778;5.956;2023-08-24T17:08:27;22.10;99.90
61896;DHT22;47835;52.778;5.956;2023-08-24T17:10:53;22.20;99.90
61896;DHT22;47835;52.778;5.956;2023-08-24T17:13:18;22.20;99.90
61896;DHT22;47835;52.778;5.956;2023-08-24T17:15:48;22.20;99.90
61896;DHT22;47835;52.778;5.956;2023-08-24T17:18:15;22.20;99.90
61896;DHT22;47835;52.778;5.956;2023-08-24T17:20:41;22.20;99.90
61896;DHT22;47835;52.778;5.956;2023-08-24T17:23:06;22.30;99.90
61896;DHT22;47835;52.778;5.956;2023-08-24T17:25:32;22.20;99.90
61896;DHT22;47835;52.778;5.956;2023-08-24T17:27:57;22.20;99.90
61896;DHT22;47835;52.778;5.956;2023-08-24T17:30:23;22.20;99.90
61896;DHT22;47835;52.778;5.956;2023-08-24T17:32:48;22.20;99.90
61896;DHT22;47835;52.778;5.956;2023-08-24T17:35:20;22.20;99.90
61896;DHT22;47835;52.778;5.956;2023-08-24T17:37:46;22.10;99.90
61896;DHT22;47835;52.778;5.956;2023-08-24T17:40:12;22.10;99.90
61896;DHT22;47835;52.778;5.956;2023-08-24T17:43:22;22.00;99.90
61896;DHT22;47835;52.778;5.956;2023-08-24T17:45:47;22.00;99.90
61896;DHT22;47835;52.778;5.956;2023-08-24T17:48:12;22.00;99.90
61896;DHT22;47835;52.778;5.956;2023-08-24T17:50:41;22.00;99.90
61896;DHT22;47835;52.778;5.956;2023-08-24T17:53:09;21.90;99.90
61896;DHT22;47835;52.778;5.956;2023-08-24T17:55:52;22.00;99.90
61896;DHT22;47835;52.778;5.956;2023-08-24T17:58:18;21.90;99.90
61896;DHT22;47835;52.778;5.956;2023-08-24T18:00:46;21.90;99.90
61896;DHT22;47835;52.778;5.956;2023-08-24T18:03:12;21.90;99.90
61896;DHT22;47835;52.778;5.956;2023-08-24T18:05:37;21.90;99.90
61896;DHT22;47835;52.778;5.956;2023-08-24T18:08:03;21.80;99.90
61896;DHT22;47835;52.778;5.956;2023-08-24T18:10:29;21.60;99.90
61896;DHT22;47835;52.778;5.956;2023-08-24T18:12:54;21.60;99.90
61896;DHT22;47835;52.778;5.956;2023-08-24T18:15:20;21.60;99.90
61896;DHT22;47835;52.778;5.956;2023-08-24T18:17:46;21.50;99.90
61896;DHT22;47835;52.778;5.956;2023-08-24T18:20:13;21.50;99.90
61896;DHT22;47835;52.778;5.956;2023-08-24T18:22:40;21.40;99.90
61896;DHT22;47835;52.778;5.956;2023-08-24T18:25:05;21.40;99.90
61896;DHT22;47835;52.778;5.956;2023-08-24T18:27:31;21.40;99.90
61896;DHT22;47835;52.778;5.956;2023-08-24T18:29:57;21.40;99.90
61896;DHT22;47835;52.778;5.956;2023-08-24T18:32:23;21.30;99.90
61896;DHT22;47835;52.778;5.956;2023-08-24T18:34:49;21.20;99.90
61896;DHT22;47835;52.778;5.956;2023-08-24T18:37:14;21.20;99.90
61896;DHT22;47835;52.778;5.956;2023-08-24T18:39:40;21.10;99.90
61896;DHT22;47835;52.778;5.956;2023-08-24T18:42:09;21.10;99.90
61896;DHT22;47835;52.778;5.956;2023-08-24T18:44:35;21.10;99.90
61896;DHT22;47835;52.778;5.956;2023-08-24T18:47:00;21.00;99.90
61896;DHT22;47835;52.778;5.956;2023-08-24T18:49:27;21.00;99.90
61896;DHT22;47835;52.778;5.956;2023-08-24T18:51:52;21.00;99.90
61896;DHT22;47835;52.778;5.956;2023-08-24T18:54:20;21.00;99.90
61896;DHT22;47835;52.778;5.956;2023-08-24T18:56:46;20.90;99.90
61896;DHT22;47835;52.778;5.956;2023-08-24T18:59:11;20.90;99.90
61896;DHT22;47835;52.778;5.956;2023-08-24T19:01:37;20.90;99.90
61896;DHT22;47835;52.778;5.956;2023-08-24T19:04:04;20.90;99.90
61896;DHT22;47835;52.778;5.956;2023-08-24T19:06:30;20.90;99.90
61896;DHT22;47835;52.778;5.956;2023-08-24T19:08:55;20.80;99.90
61896;DHT22;47835;52.778;5.956;2023-08-24T19:11:22;20.80;99.90
61896;DHT22;47835;52.778;5.956;2023-08-24T19:13:51;20.60;99.90
61896;DHT22;47835;52.778;5.956;2023-08-24T19:16:17;20.60;99.90
61896;DHT22;47835;52.778;5.956;2023-08-24T19:18:43;20.60;99.90
61896;DHT22;47835;52.778;5.956;2023-08-24T19:21:09;20.50;99.90
61896;DHT22;47835;52.778;5.956;2023-08-24T19:23:36;20.50;99.90
61896;DHT22;47835;52.778;5.956;2023-08-24T19:26:02;20.40;99.90
61896;DHT22;47835;52.778;5.956;2023-08-24T19:28:30;20.40;99.90
61896;DHT22;47835;52.778;5.956;2023-08-24T19:30:57;20.50;99.90
61896;DHT22;47835;52.778;5.956;2023-08-24T19:33:23;20.40;99.90
61896;DHT22;47835;52.778;5.956;2023-08-24T19:35:49;20.40;99.90
61896;DHT22;47835;52.778;5.956;2023-08-24T19:38:14;20.50;99.90
61896;DHT22;47835;52.778;5.956;2023-08-24T19:40:43;20.40;99.90
61896;DHT22;47835;52.778;5.956;2023-08-24T19:43:12;20.50;99.90
61896;DHT22;47835;52.778;5.956;2023-08-24T19:45:38;20.40;99.90
61896;DHT22;47835;52.778;5.956;2023-08-24T19:51:14;20.40;99.90
61896;DHT22;47835;52.778;5.956;2023-08-24T19:53:40;20.30;99.90
61896;DHT22;47835;52.778;5.956;2023-08-24T19:56:06;20.30;99.90
61896;DHT22;47835;52.778;5.956;2023-08-24T19:58:31;20.30;99.90
61896;DHT22;47835;52.778;5.956;2023-08-24T20:01:19;20.20;99.90
61896;DHT22;47835;52.778;5.956;2023-08-24T20:03:57;20.20;99.90
61896;DHT22;47835;52.778;5.956;2023-08-24T20:06:25;20.20;99.90
61896;DHT22;47835;52.778;5.956;2023-08-24T20:08:51;20.20;99.90
61896;DHT22;47835;52.778;5.956;2023-08-24T20:11:17;20.20;99.90
61896;DHT22;47835;52.778;5.956;2023-08-24T20:13:43;20.20;99.90
61896;DHT22;47835;52.778;5.956;2023-08-24T20:16:09;20.20;99.90
61896;DHT22;47835;52.778;5.956;2023-08-24T20:18:35;20.20;99.90
61896;DHT22;47835;52.778;5.956;2023-08-24T20:21:03;20.20;99.90
61896;DHT22;47835;52.778;5.956;2023-08-24T20:23:32;20.20;99.90
61896;DHT22;47835;52.778;5.956;2023-08-24T20:25:59;20.30;99.90
61896;DHT22;47835;52.778;5.956;2023-08-24T20:28:24;20.20;99.90
61896;DHT22;47835;52.778;5.956;2023-08-24T20:30:58;20.30;99.90
61896;DHT22;47835;52.778;5.956;2023-08-24T20:33:25;20.30;99.90
61896;DHT22;47835;52.778;5.956;2023-08-24T20:35:50;20.30;99.90
61896;DHT22;47835;52.778;5.956;2023-08-24T20:38:16;20.30;99.90
61896;DHT22;47835;52.778;5.956;2023-08-24T20:40:42;20.30;99.90
61896;DHT22;47835;52.778;5.956;2023-08-24T20:43:07;20.20;99.90
61896;DHT22;47835;52.778;5.956;2023-08-24T20:45:33;20.30;99.90
61896;DHT22;47835;52.778;5.956;2023-08-24T20:47:58;20.30;99.90
61896;DHT22;47835;52.778;5.956;2023-08-24T20:50:24;20.30;99.90
61896;DHT22;47835;52.778;5.956;2023-08-24T20:52:50;20.30;99.90
61896;DHT22;47835;52.778;5.956;2023-08-24T20:55:15;20.30;99.90